Terminal Aerodrome Forecast
Issued by NWS Cleveland, OH

Home | Current Version | Previous Version | Text Only | Print | Product List | Glossary On
Versions: 1 2 3 4 5 6 7 8 9 10 11 12 13 14
000
FTUS41 KCLE 010538
TAFCAK
TAF
KCAK 010538Z 0106/0206 28006KT P6SM SCT080
     FM011700 29010G18KT P6SM BKN060
     FM020000 24005KT P6SM SCT060=

USA.gov is the U.S. government's official web portal to all federal, state and local government web resources and services.